North Bloomfield, Ohio
Current Conditions -  °F | °C
As of 12:51 PM on Thursday 30 Oct 2014 (Local Time) from KYNG Reporting Station
Overcast Overcast  
Wind Chill: 45°   Ceiling: 4200
Heat Index: 48°   Visibility: 10mi
Dew Point: 37°   Wind: 7mph
Humidity: 66%   Direction: 290°WNW
Pressure: 30.09"   Gusts: NA
Location:  41.46°N, 80.87°W
Report Text: KYNG 301651Z 29006KT 10SM SCT025 OVC042 09/03 A3009 RMK AO2 SLP195 T00890028 $
Loading
Personal Weather Stations






























Interactive Weather Map
Tropical Storm Tracking
New forecast layout! Learn more

10-Day Weather Forecast

Advertisements
Track Severe Weather on mobile